• Join FlightAware (Why Join?)
  • Login
  • US Flag 
03:49AM EDT


 

Airport Tracker/Info


-or-


 

Live Flight TrackerFlight Track Log ✈ N95445 ✈ 05-Jun-2013 ✈ 1G3 - 4I3

Flight Track Log - Related Links

Times and Time Zones

All times are in EDT time to prevent confusion due to time zone crossing. See the N95445 flight status page for this flight to view local times or setup timezone preferences in your user account.

Time Position Orientation Groundspeed Altitude Reporting Facility
EDT Latitude Longitude Course Direction KTS MPH feet Rate Location/Type
01:31PM 41.0975 -81.4947 213° Southwest 77 89 4,600  Level Indianapolis Center
01:32PM 41.0733 -81.5158 213° Southwest 90 104 4,600 -60 Level Indianapolis Center
01:33PM 41.0517 -81.5406 221° Southwest 99 114 4,500  Descending Indianapolis Center
01:34PM 41.0325 -81.5769 235° Southwest 101 116 4,600  Climbing Indianapolis Center
01:35PM 41.0158 -81.6092 236° Southwest 102 117 4,600  Level Indianapolis Center
01:36PM 40.9972 -81.6411 232° Southwest 106 122 4,600 -60 Level Indianapolis Center
01:38PM 40.9536 -81.6917 221° Southwest 103 119 4,500  Descending Indianapolis Center
01:39PM 40.9317 -81.7161 220° Southwest 102 117 4,600  Climbing Indianapolis Center
01:40PM 40.9075 -81.7411 218° Southwest 105 121 4,600 -60 Level Indianapolis Center
01:41PM 40.8872 -81.7689 226° Southwest 105 121 4,500  Descending Indianapolis Center
01:42PM 40.8667 -81.7981 227° Southwest 106 122 4,600 60 Climbing Indianapolis Center
01:43PM 40.8478 -81.8289 231° Southwest 106 122 4,700  Climbing Indianapolis Center
01:44PM 40.8231 -81.8642 227° Southwest 109 125 4,600 -60 Descending Indianapolis Center
01:45PM 40.7975 -81.8908 218° Southwest 113 130 4,600  Level Indianapolis Center
01:46PM 40.7817 -81.9219 236° Southwest 106 122 4,600 -180 Level Indianapolis Center
01:47PM 40.7617 -81.9464 223° Southwest 101 116 4,300 -120 Descending Indianapolis Center
01:48PM 40.7428 -81.9739 228° Southwest 100 115 4,400 60 Climbing Indianapolis Center
01:49PM 40.7200 -81.9986 219° Southwest 102 117 4,500  Climbing Indianapolis Center
01:50PM 40.6986 -82.0278 226° Southwest 106 122 4,500  Level Indianapolis Center
01:51PM 40.6783 -82.0558 226° Southwest 106 122 4,500  Level Indianapolis Center
01:52PM 40.6594 -82.0842 229° Southwest 104 120 4,500 -60 Level Indianapolis Center
01:53PM 40.6353 -82.1156 225° Southwest 104 120 4,400  Descending Indianapolis Center
01:54PM 40.6142 -82.1414 223° Southwest 102 117 4,600  Climbing Indianapolis Center
01:55PM 40.5911 -82.1653 218° Southwest 103 119 4,500 -60 Descending Indianapolis Center
01:56PM 40.5736 -82.1947 232° Southwest 101 116 4,500  Level Indianapolis Center
01:57PM 40.5550 -82.2253 231° Southwest 105 121 4,500  Level Indianapolis Center
01:59PM 40.5372 -82.2539 231° Southwest 102 117 4,500 -60 Level Indianapolis Center
01:59PM 40.5222 -82.2817 235° Southwest 106 122 4,400 -120 Descending Indianapolis Center
02:00PM 40.5186 -82.2861 223° Southwest 107 123 4,400 60 Level Indianapolis Center
02:00PM 40.5014 -82.3153 232° Southwest 105 121 4,500  Climbing Indianapolis Center
02:01PM 40.4869 -82.3439 236° Southwest 98 113 4,500  Level Indianapolis Center
02:02PM 40.4844 -82.3450 199° South 102 117 4,500  Level Indianapolis Center
02:02PM 40.4683 -82.3719 232° Southwest 111 128 4,500  Level Indianapolis Center
02:03PM 40.4619 -82.3786 218° Southwest 104 120 4,500 -240 Level Indianapolis Center
02:03PM 40.4461 -82.3942 217° Southwest 103 119 4,300  Descending Indianapolis Center
02:04PM 40.4383 -82.3992 206° Southwest 101 116 4,500 180 Climbing Indianapolis Center
02:04PM 40.4239 -82.4164 222° Southwest 100 115 4,500  Level Indianapolis Center
02:05PM 40.4142 -82.4203 197° South 103 119 4,500  Level Indianapolis Center
02:05PM 40.4014 -82.4386 228° Southwest 103 119 4,500  Level Indianapolis Center
02:06PM 40.3936 -82.4472 220° Southwest 103 119 4,500  Level Indianapolis Center
02:06PM 40.3767 -82.4661 220° Southwest 106 122 4,500  Level Indianapolis Center
02:07PM 40.3692 -82.4700 202° Southwest 103 119 4,500  Level Indianapolis Center
02:09PM 40.3167 -82.5167 217° Southwest  Level FlightAware Approximate
02:16PM 40.3289 -82.5261 217° Southwest  Level Estimated
02:17PM 40.3289 -82.5261 217° Southwest  Level Estimated